General Aviation Weather

Text Reports

Enter one or more of the following location identifiers separated by a space:

Zip Code, Four-Character ICAO or Three-Character IATA airport codes.

METAR - Aviation Routine Weather Report
KUBE - Cumberland, Wisconsin
Updated at 9:15 AM GMT on May 24, 2015 (4:15 AM CDT):
METAR KUBE 240915Z AUTO 04003KT 10SM OVC075 13/09 A3015 RMK AO2
TAF - Terminal Area Forecast
KUBE - Cumberland, Wisconsin
Updated at 9:15 AM GMT on May 24, 2015 (4:15 AM CDT):
No TAF is currently available for this location.
Decoded:
No decoded TAF is available.
PIREP - Pilot Weather Report
KUBE - Cumberland, Wisconsin
Updated at 9:15 AM GMT on May 24, 2015 (4:15 AM CDT):
No PIREP is currently available for this location.
AIRMET - Airmens Meteorological Information
KUBE - Cumberland, Wisconsin
Updated at 9:15 AM GMT on May 24, 2015 (4:15 AM CDT):
No AIRMET is currently available for this location.
SIGMET - Significant Meteorological Information
KUBE - Cumberland, Wisconsin
Updated at 9:15 AM GMT on May 24, 2015 (4:15 AM CDT):
No SIGMET is currently available for this location.
NOTAM - Notice to Airmen
KUBE - Cumberland, Wisconsin
Updated at 9:15 AM GMT on May 24, 2015 (4:15 AM CDT):
No NOTAM is currently available for this location.
Forecast Area
KUBE - Cumberland, Wisconsin
Updated at 9:15 AM GMT on May 24, 2015 (4:15 AM CDT):
No NOTAM is currently available for this location.
Aviation Weather Maps